sensor_id;sensor_type;location;lat;lon;timestamp;pressure;altitude;pressure_sealevel;temperature;humidity
47530;BME280;33272;51.922;7.730;2022-09-12T00:01:15;101010.41;;;12.88;100.00
47530;BME280;33272;51.922;7.730;2022-09-12T00:03:42;100997.03;;;12.80;100.00
47530;BME280;33272;51.922;7.730;2022-09-12T00:06:11;101004.03;;;12.83;100.00
47530;BME280;33272;51.922;7.730;2022-09-12T00:08:40;101003.72;;;12.78;100.00
47530;BME280;33272;51.922;7.730;2022-09-12T00:11:09;101000.16;;;12.76;100.00
47530;BME280;33272;51.922;7.730;2022-09-12T00:13:38;100998.16;;;12.72;100.00
47530;BME280;33272;51.922;7.730;2022-09-12T00:16:06;100997.06;;;12.68;100.00
47530;BME280;33272;51.922;7.730;2022-09-12T00:18:33;100997.66;;;12.64;100.00
47530;BME280;33272;51.922;7.730;2022-09-12T00:21:02;100997.31;;;12.60;100.00
47530;BME280;33272;51.922;7.730;2022-09-12T00:23:30;100993.84;;;12.59;100.00
47530;BME280;33272;51.922;7.730;2022-09-12T00:25:59;100990.41;;;12.59;100.00
47530;BME280;33272;51.922;7.730;2022-09-12T00:28:25;100994.44;;;12.55;100.00
47530;BME280;33272;51.922;7.730;2022-09-12T00:30:52;100985.50;;;12.50;100.00
47530;BME280;33272;51.922;7.730;2022-09-12T00:33:19;100981.03;;;12.47;100.00
47530;BME280;33272;51.922;7.730;2022-09-12T00:35:49;100975.16;;;12.48;100.00
47530;BME280;33272;51.922;7.730;2022-09-12T00:38:18;100981.84;;;12.46;100.00
47530;BME280;33272;51.922;7.730;2022-09-12T00:40:46;100983.31;;;12.43;100.00
47530;BME280;33272;51.922;7.730;2022-09-12T00:43:37;100986.63;;;12.42;100.00
47530;BME280;33272;51.922;7.730;2022-09-12T00:46:12;100983.75;;;12.37;100.00
47530;BME280;33272;51.922;7.730;2022-09-12T00:48:44;100974.38;;;12.38;100.00
47530;BME280;33272;51.922;7.730;2022-09-12T00:51:13;100970.03;;;12.37;100.00
47530;BME280;33272;51.922;7.730;2022-09-12T00:53:43;100968.94;;;12.33;100.00
47530;BME280;33272;51.922;7.730;2022-09-12T00:56:14;100968.22;;;12.36;100.00
47530;BME280;33272;51.922;7.730;2022-09-12T00:58:50;100972.03;;;12.29;100.00
47530;BME280;33272;51.922;7.730;2022-09-12T01:01:19;100964.25;;;12.27;100.00
47530;BME280;33272;51.922;7.730;2022-09-12T01:03:47;100955.44;;;12.24;100.00
47530;BME280;33272;51.922;7.730;2022-09-12T01:06:17;100955.31;;;12.22;100.00
47530;BME280;33272;51.922;7.730;2022-09-12T01:08:47;100962.06;;;12.20;100.00
47530;BME280;33272;51.922;7.730;2022-09-12T01:11:15;100957.91;;;12.22;100.00
47530;BME280;33272;51.922;7.730;2022-09-12T01:13:45;100958.56;;;12.20;100.00
47530;BME280;33272;51.922;7.730;2022-09-12T01:16:14;100957.59;;;12.18;100.00
47530;BME280;33272;51.922;7.730;2022-09-12T01:18:58;100953.69;;;12.11;100.00
47530;BME280;33272;51.922;7.730;2022-09-12T01:21:36;100958.59;;;12.08;100.00
47530;BME280;33272;51.922;7.730;2022-09-12T01:24:36;100959.84;;;12.01;100.00
47530;BME280;33272;51.922;7.730;2022-09-12T01:27:39;100952.69;;;11.97;100.00
47530;BME280;33272;51.922;7.730;2022-09-12T01:30:38;100953.38;;;11.95;100.00
47530;BME280;33272;51.922;7.730;2022-09-12T01:33:31;100965.06;;;11.91;100.00
47530;BME280;33272;51.922;7.730;2022-09-12T01:36:20;100962.28;;;11.88;100.00
47530;BME280;33272;51.922;7.730;2022-09-12T01:38:57;100959.63;;;11.87;100.00
47530;BME280;33272;51.922;7.730;2022-09-12T01:41:29;100954.38;;;11.85;100.00
47530;BME280;33272;51.922;7.730;2022-09-12T01:44:03;100954.25;;;11.83;100.00
47530;BME280;33272;51.922;7.730;2022-09-12T01:46:43;100958.25;;;11.80;100.00
47530;BME280;33272;51.922;7.730;2022-09-12T01:49:19;100952.91;;;11.77;100.00
47530;BME280;33272;51.922;7.730;2022-09-12T01:51:56;100941.63;;;11.75;100.00
47530;BME280;33272;51.922;7.730;2022-09-12T01:54:31;100937.19;;;11.72;100.00
47530;BME280;33272;51.922;7.730;2022-09-12T01:57:06;100934.59;;;11.72;100.00
47530;BME280;33272;51.922;7.730;2022-09-12T01:59:40;100941.31;;;11.70;100.00
47530;BME280;33272;51.922;7.730;2022-09-12T02:02:14;100939.41;;;11.68;100.00
47530;BME280;33272;51.922;7.730;2022-09-12T02:04:47;100931.59;;;11.66;100.00
47530;BME280;33272;51.922;7.730;2022-09-12T02:07:20;100933.94;;;11.63;100.00
47530;BME280;33272;51.922;7.730;2022-09-12T02:09:53;100928.72;;;11.62;100.00
47530;BME280;33272;51.922;7.730;2022-09-12T02:12:25;100937.06;;;11.59;100.00
47530;BME280;33272;51.922;7.730;2022-09-12T02:15:00;100929.16;;;11.56;100.00
47530;BME280;33272;51.922;7.730;2022-09-12T02:17:30;100929.16;;;11.56;100.00
47530;BME280;33272;51.922;7.730;2022-09-12T02:20:06;100927.25;;;11.53;100.00
47530;BME280;33272;51.922;7.730;2022-09-12T02:22:36;100923.72;;;11.51;100.00
47530;BME280;33272;51.922;7.730;2022-09-12T02:25:06;100923.72;;;11.51;100.00
47530;BME280;33272;51.922;7.730;2022-09-12T02:27:37;100919.25;;;11.49;100.00
47530;BME280;33272;51.922;7.730;2022-09-12T02:30:08;100925.16;;;11.48;100.00
47530;BME280;33272;51.922;7.730;2022-09-12T02:32:43;100924.25;;;11.47;100.00
47530;BME280;33272;51.922;7.730;2022-09-12T02:35:23;100919.81;;;11.45;100.00
47530;BME280;33272;51.922;7.730;2022-09-12T02:37:58;100914.69;;;11.45;100.00
47530;BME280;33272;51.922;7.730;2022-09-12T02:40:26;100923.34;;;11.47;100.00
47530;BME280;33272;51.922;7.730;2022-09-12T02:42:53;100914.78;;;11.46;100.00
47530;BME280;33272;51.922;7.730;2022-09-12T02:45:21;100919.03;;;11.46;100.00
47530;BME280;33272;51.922;7.730;2022-09-12T02:47:53;100913.91;;;11.46;100.00
47530;BME280;33272;51.922;7.730;2022-09-12T02:50:23;100908.78;;;11.46;100.00
47530;BME280;33272;51.922;7.730;2022-09-12T02:52:50;100907.97;;;11.47;100.00
47530;BME280;33272;51.922;7.730;2022-09-12T02:55:20;100900.19;;;11.45;100.00
47530;BME280;33272;51.922;7.730;2022-09-12T02:57:49;100899.31;;;11.45;100.00
47530;BME280;33272;51.922;7.730;2022-09-12T03:00:16;100904.44;;;11.45;100.00
47530;BME280;33272;51.922;7.730;2022-09-12T03:02:57;100896.53;;;11.42;100.00
47530;BME280;33272;51.922;7.730;2022-09-12T03:05:32;100897.97;;;11.38;100.00
47530;BME280;33272;51.922;7.730;2022-09-12T03:08:32;100895.84;;;11.32;100.00
47530;BME280;33272;51.922;7.730;2022-09-12T03:11:18;100898.94;;;11.28;100.00
47530;BME280;33272;51.922;7.730;2022-09-12T03:14:02;100897.59;;;11.22;100.00
47530;BME280;33272;51.922;7.730;2022-09-12T03:16:39;100897.38;;;11.19;100.00
47530;BME280;33272;51.922;7.730;2022-09-12T03:19:15;100904.81;;;11.16;100.00
47530;BME280;33272;51.922;7.730;2022-09-12T03:22:00;100900.41;;;11.13;100.00
47530;BME280;33272;51.922;7.730;2022-09-12T03:24:32;100900.41;;;11.13;100.00
47530;BME280;33272;51.922;7.730;2022-09-12T03:27:10;100891.56;;;11.09;100.00
47530;BME280;33272;51.922;7.730;2022-09-12T03:29:39;100891.69;;;11.11;100.00
47530;BME280;33272;51.922;7.730;2022-09-12T03:32:07;100883.78;;;11.08;100.00
47530;BME280;33272;51.922;7.730;2022-09-12T03:34:36;100882.75;;;11.06;100.00
47530;BME280;33272;51.922;7.730;2022-09-12T03:37:04;100881.00;;;11.05;100.00
47530;BME280;33272;51.922;7.730;2022-09-12T03:39:32;100885.09;;;11.03;100.00
47530;BME280;33272;51.922;7.730;2022-09-12T03:41:59;100881.56;;;11.01;100.00
47530;BME280;33272;51.922;7.730;2022-09-12T03:44:27;100888.00;;;10.96;100.00
47530;BME280;33272;51.922;7.730;2022-09-12T03:46:54;100886.00;;;10.92;100.00
47530;BME280;33272;51.922;7.730;2022-09-12T03:49:20;100897.69;;;10.88;100.00
47530;BME280;33272;51.922;7.730;2022-09-12T03:51:49;100893.22;;;10.85;100.00
47530;BME280;33272;51.922;7.730;2022-09-12T03:54:16;100888.09;;;10.85;100.00
47530;BME280;33272;51.922;7.730;2022-09-12T03:56:43;100892.31;;;10.85;100.00
47530;BME280;33272;51.922;7.730;2022-09-12T03:59:10;100888.84;;;10.84;100.00
47530;BME280;33272;51.922;7.730;2022-09-12T04:01:37;100891.41;;;10.84;100.00
47530;BME280;33272;51.922;7.730;2022-09-12T04:04:04;100897.44;;;10.85;100.00
47530;BME280;33272;51.922;7.730;2022-09-12T04:06:31;100891.53;;;10.86;100.00
47530;BME280;33272;51.922;7.730;2022-09-12T04:08:59;100891.53;;;10.86;100.00
47530;BME280;33272;51.922;7.730;2022-09-12T04:11:26;100894.09;;;10.86;100.00
47530;BME280;33272;51.922;7.730;2022-09-12T04:13:53;100889.75;;;10.85;100.00
47530;BME280;33272;51.922;7.730;2022-09-12T04:16:20;100889.75;;;10.85;100.00
47530;BME280;33272;51.922;7.730;2022-09-12T04:18:47;100892.31;;;10.85;100.00
47530;BME280;33272;51.922;7.730;2022-09-12T04:21:16;100891.88;;;10.90;100.00
47530;BME280;33272;51.922;7.730;2022-09-12T04:23:44;100884.75;;;10.86;100.00
47530;BME280;33272;51.922;7.730;2022-09-12T04:26:13;100888.97;;;10.86;100.00
47530;BME280;33272;51.922;7.730;2022-09-12T04:28:42;100886.09;;;10.81;100.00
47530;BME280;33272;51.922;7.730;2022-09-12T04:31:14;100888.50;;;10.80;100.00
47530;BME280;33272;51.922;7.730;2022-09-12T04:33:42;100878.94;;;10.77;100.00
47530;BME280;33272;51.922;7.730;2022-09-12T04:36:14;100868.91;;;10.80;100.00
47530;BME280;33272;51.922;7.730;2022-09-12T04:38:42;100867.00;;;10.78;100.00
47530;BME280;33272;51.922;7.730;2022-09-12T04:41:12;100867.47;;;10.72;100.00
47530;BME280;33272;51.922;7.730;2022-09-12T04:43:40;100872.69;;;10.74;100.00
47530;BME280;33272;51.922;7.730;2022-09-12T04:46:09;100871.44;;;10.68;100.00
47530;BME280;33272;51.922;7.730;2022-09-12T04:48:37;100873.75;;;10.65;100.00
47530;BME280;33272;51.922;7.730;2022-09-12T04:51:08;100870.31;;;10.65;100.00
47530;BME280;33272;51.922;7.730;2022-09-12T04:53:37;100872.53;;;10.60;100.00
47530;BME280;33272;51.922;7.730;2022-09-12T04:56:07;100869.09;;;10.60;100.00
47530;BME280;33272;51.922;7.730;2022-09-12T04:58:36;100871.00;;;10.62;100.00
47530;BME280;33272;51.922;7.730;2022-09-12T05:01:05;100871.34;;;10.67;100.00
47530;BME280;33272;51.922;7.730;2022-09-12T05:03:33;100867.66;;;10.63;100.00
47530;BME280;33272;51.922;7.730;2022-09-12T05:06:01;100876.22;;;10.64;100.00
47530;BME280;33272;51.922;7.730;2022-09-12T05:08:29;100873.75;;;10.65;100.00
47530;BME280;33272;51.922;7.730;2022-09-12T05:10:56;100874.78;;;10.67;100.00
47530;BME280;33272;51.922;7.730;2022-09-12T05:13:28;100872.22;;;10.67;100.00
47530;BME280;33272;51.922;7.730;2022-09-12T05:15:58;100879.47;;;10.73;100.00
47530;BME280;33272;51.922;7.730;2022-09-12T05:18:26;100875.38;;;10.75;100.00
47530;BME280;33272;51.922;7.730;2022-09-12T05:20:53;100879.94;;;10.79;100.00
47530;BME280;33272;51.922;7.730;2022-09-12T05:23:21;100874.25;;;10.83;100.00
47530;BME280;33272;51.922;7.730;2022-09-12T05:25:50;100873.59;;;10.86;100.00
47530;BME280;33272;51.922;7.730;2022-09-12T05:28:17;100867.50;;;10.96;100.00
47530;BME280;33272;51.922;7.730;2022-09-12T05:30:44;100866.72;;;10.97;100.00
47530;BME280;33272;51.922;7.730;2022-09-12T05:33:13;100866.28;;;11.02;100.00
47530;BME280;33272;51.922;7.730;2022-09-12T05:35:40;100865.84;;;11.08;100.00
47530;BME280;33272;51.922;7.730;2022-09-12T05:38:07;100869.19;;;11.19;100.00
47530;BME280;33272;51.922;7.730;2022-09-12T05:40:34;100865.97;;;11.21;100.00
47530;BME280;33272;51.922;7.730;2022-09-12T05:43:01;100869.34;;;11.32;100.00
47530;BME280;33272;51.922;7.730;2022-09-12T05:45:29;100868.78;;;11.48;100.00
47530;BME280;33272;51.922;7.730;2022-09-12T05:47:57;100867.50;;;11.66;100.00
47530;BME280;33272;51.922;7.730;2022-09-12T05:50:25;100873.31;;;11.87;100.00
47530;BME280;33272;51.922;7.730;2022-09-12T05:52:52;100875.50;;;12.06;100.00
47530;BME280;33272;51.922;7.730;2022-09-12T05:55:20;100872.66;;;12.26;100.00
47530;BME280;33272;51.922;7.730;2022-09-12T05:57:47;100874.91;;;12.47;100.00
47530;BME280;33272;51.922;7.730;2022-09-12T06:00:15;100879.88;;;12.57;100.00
47530;BME280;33272;51.922;7.730;2022-09-12T06:02:44;100874.00;;;12.71;100.00
47530;BME280;33272;51.922;7.730;2022-09-12T06:05:11;100882.69;;;12.73;100.00
47530;BME280;33272;51.922;7.730;2022-09-12T06:07:39;100889.38;;;12.83;100.00
47530;BME280;33272;51.922;7.730;2022-09-12T06:10:18;100876.72;;;12.86;100.00
47530;BME280;33272;51.922;7.730;2022-09-12T06:12:47;100887.69;;;12.97;100.00
47530;BME280;33272;51.922;7.730;2022-09-12T06:15:14;100890.09;;;13.07;100.00
47530;BME280;33272;51.922;7.730;2022-09-12T06:17:42;100889.81;;;13.16;100.00
47530;BME280;33272;51.922;7.730;2022-09-12T06:20:09;100896.47;;;13.26;100.00
47530;BME280;33272;51.922;7.730;2022-09-12T06:22:36;100883.34;;;13.34;100.00
47530;BME280;33272;51.922;7.730;2022-09-12T06:25:06;100871.56;;;13.51;100.00
47530;BME280;33272;51.922;7.730;2022-09-12T06:27:34;100870.84;;;13.67;100.00
47530;BME280;33272;51.922;7.730;2022-09-12T06:30:01;100875.00;;;13.78;100.00
47530;BME280;33272;51.922;7.730;2022-09-12T06:32:29;100878.44;;;13.92;100.00
47530;BME280;33272;51.922;7.730;2022-09-12T06:34:56;100867.53;;;14.09;100.00
47530;BME280;33272;51.922;7.730;2022-09-12T06:37:23;100870.94;;;14.23;100.00
47530;BME280;33272;51.922;7.730;2022-09-12T06:39:50;100866.81;;;14.40;100.00
47530;BME280;33272;51.922;7.730;2022-09-12T06:42:19;100874.53;;;14.53;100.00
47530;BME280;33272;51.922;7.730;2022-09-12T06:44:47;100865.84;;;14.66;100.00
47530;BME280;33272;51.922;7.730;2022-09-12T06:47:15;100859.09;;;14.83;100.00
47530;BME280;33272;51.922;7.730;2022-09-12T06:49:42;100860.88;;;14.99;100.00
47530;BME280;33272;51.922;7.730;2022-09-12T06:52:09;100860.78;;;15.12;100.00
47530;BME280;33272;51.922;7.730;2022-09-12T06:54:36;100862.72;;;15.31;100.00
47530;BME280;33272;51.922;7.730;2022-09-12T06:57:03;100869.75;;;15.48;100.00
47530;BME280;33272;51.922;7.730;2022-09-12T06:59:31;100866.31;;;15.64;100.00
47530;BME280;33272;51.922;7.730;2022-09-12T07:01:58;100880.28;;;15.83;100.00
47530;BME280;33272;51.922;7.730;2022-09-12T07:04:26;100866.41;;;15.97;100.00
47530;BME280;33272;51.922;7.730;2022-09-12T07:06:53;100867.41;;;16.15;100.00
47530;BME280;33272;51.922;7.730;2022-09-12T07:09:20;100871.69;;;16.31;100.00
47530;BME280;33272;51.922;7.730;2022-09-12T07:11:47;100882.28;;;16.52;100.00
47530;BME280;33272;51.922;7.730;2022-09-12T07:14:15;100879.53;;;16.65;100.00
47530;BME280;33272;51.922;7.730;2022-09-12T07:16:43;100873.53;;;16.83;100.00
47530;BME280;33272;51.922;7.730;2022-09-12T07:19:10;100870.78;;;16.96;100.00
47530;BME280;33272;51.922;7.730;2022-09-12T07:21:37;100872.13;;;17.06;100.00
47530;BME280;33272;51.922;7.730;2022-09-12T07:24:06;100874.41;;;17.18;100.00
47530;BME280;33272;51.922;7.730;2022-09-12T07:26:34;100872.59;;;17.33;100.00
47530;BME280;33272;51.922;7.730;2022-09-12T07:29:01;100874.22;;;17.49;100.00
47530;BME280;33272;51.922;7.730;2022-09-12T07:31:28;100885.25;;;17.63;100.00
47530;BME280;33272;51.922;7.730;2022-09-12T07:33:56;100883.16;;;17.73;100.00
47530;BME280;33272;51.922;7.730;2022-09-12T07:36:24;100884.59;;;17.85;100.00
47530;BME280;33272;51.922;7.730;2022-09-12T07:38:55;100884.25;;;17.96;100.00
47530;BME280;33272;51.922;7.730;2022-09-12T07:41:24;100877.19;;;18.12;100.00
47530;BME280;33272;51.922;7.730;2022-09-12T07:43:53;100883.03;;;18.25;100.00
47530;BME280;33272;51.922;7.730;2022-09-12T07:46:21;100877.47;;;18.37;100.00
47530;BME280;33272;51.922;7.730;2022-09-12T07:48:50;100885.94;;;18.52;100.00
47530;BME280;33272;51.922;7.730;2022-09-12T07:51:19;100882.13;;;18.64;100.00
47530;BME280;33272;51.922;7.730;2022-09-12T07:53:46;100886.66;;;18.69;100.00
47530;BME280;33272;51.922;7.730;2022-09-12T07:56:14;100883.63;;;18.78;100.00
47530;BME280;33272;51.922;7.730;2022-09-12T07:58:43;100887.63;;;18.91;100.00
47530;BME280;33272;51.922;7.730;2022-09-12T08:01:11;100882.81;;;18.79;100.00
47530;BME280;33272;51.922;7.730;2022-09-12T08:03:39;100887.31;;;18.83;100.00
47530;BME280;33272;51.922;7.730;2022-09-12T08:06:08;100883.44;;;18.94;100.00
47530;BME280;33272;51.922;7.730;2022-09-12T08:08:38;100884.84;;;19.07;100.00
47530;BME280;33272;51.922;7.730;2022-09-12T08:11:08;100884.69;;;19.24;100.00
47530;BME280;33272;51.922;7.730;2022-09-12T08:13:37;100887.84;;;19.37;100.00
47530;BME280;33272;51.922;7.730;2022-09-12T08:16:08;100889.06;;;19.45;100.00
47530;BME280;33272;51.922;7.730;2022-09-12T08:18:37;100883.97;;;19.49;100.00
47530;BME280;33272;51.922;7.730;2022-09-12T08:21:07;100889.66;;;19.61;100.00
47530;BME280;33272;51.922;7.730;2022-09-12T08:23:37;100889.28;;;19.73;100.00
47530;BME280;33272;51.922;7.730;2022-09-12T08:26:05;100887.25;;;19.86;100.00
47530;BME280;33272;51.922;7.730;2022-09-12T08:28:33;100886.69;;;19.95;100.00
47530;BME280;33272;51.922;7.730;2022-09-12T08:31:03;100871.41;;;20.03;100.00
47530;BME280;33272;51.922;7.730;2022-09-12T08:33:31;100879.53;;;20.12;100.00
47530;BME280;33272;51.922;7.730;2022-09-12T08:36:07;100882.41;;;20.20;100.00
47530;BME280;33272;51.922;7.730;2022-09-12T08:38:38;100875.84;;;20.29;100.00
47530;BME280;33272;51.922;7.730;2022-09-12T08:41:11;100882.94;;;20.33;100.00
47530;BME280;33272;51.922;7.730;2022-09-12T08:44:09;100878.25;;;20.47;100.00
47530;BME280;33272;51.922;7.730;2022-09-12T08:46:48;100871.78;;;20.60;100.00
47530;BME280;33272;51.922;7.730;2022-09-12T08:49:27;100870.41;;;20.70;100.00
47530;BME280;33272;51.922;7.730;2022-09-12T08:51:57;100872.59;;;20.83;100.00
47530;BME280;33272;51.922;7.730;2022-09-12T08:54:28;100865.31;;;20.98;100.00
47530;BME280;33272;51.922;7.730;2022-09-12T08:57:00;100878.75;;;21.12;100.00
47530;BME280;33272;51.922;7.730;2022-09-12T08:59:32;100870.50;;;21.24;100.00
47530;BME280;33272;51.922;7.730;2022-09-12T09:02:01;100877.00;;;21.37;100.00
47530;BME280;33272;51.922;7.730;2022-09-12T09:04:39;100876.44;;;21.45;100.00
47530;BME280;33272;51.922;7.730;2022-09-12T09:07:29;100882.03;;;21.58;100.00
47530;BME280;33272;51.922;7.730;2022-09-12T09:10:14;100883.28;;;21.70;100.00
47530;BME280;33272;51.922;7.730;2022-09-12T09:12:51;100881.94;;;21.83;100.00
47530;BME280;33272;51.922;7.730;2022-09-12T09:15:38;100879.47;;;21.88;99.53
47530;BME280;33272;51.922;7.730;2022-09-12T09:18:13;100879.75;;;21.97;99.42
47530;BME280;33272;51.922;7.730;2022-09-12T09:20:47;100883.50;;;22.07;99.05
47530;BME280;33272;51.922;7.730;2022-09-12T09:23:21;100885.47;;;22.14;98.27
47530;BME280;33272;51.922;7.730;2022-09-12T09:25:54;100883.22;;;22.25;97.75
47530;BME280;33272;51.922;7.730;2022-09-12T09:28:30;100872.25;;;22.36;97.40
47530;BME280;33272;51.922;7.730;2022-09-12T09:31:00;100881.41;;;22.54;96.62
47530;BME280;33272;51.922;7.730;2022-09-12T09:33:33;100877.41;;;22.66;96.10
47530;BME280;33272;51.922;7.730;2022-09-12T09:36:09;100873.28;;;22.73;94.95
47530;BME280;33272;51.922;7.730;2022-09-12T09:38:47;100874.69;;;22.62;94.23
47530;BME280;33272;51.922;7.730;2022-09-12T09:41:41;100868.19;;;22.48;93.88
47530;BME280;33272;51.922;7.730;2022-09-12T09:44:13;100873.56;;;22.52;95.99
47530;BME280;33272;51.922;7.730;2022-09-12T09:46:40;100862.28;;;22.53;95.66
47530;BME280;33272;51.922;7.730;2022-09-12T09:49:11;100860.72;;;22.60;95.13
47530;BME280;33272;51.922;7.730;2022-09-12T09:51:40;100856.75;;;22.74;94.70
47530;BME280;33272;51.922;7.730;2022-09-12T09:54:16;100853.53;;;22.84;94.17
47530;BME280;33272;51.922;7.730;2022-09-12T09:56:46;100852.03;;;22.93;93.40
47530;BME280;33272;51.922;7.730;2022-09-12T09:59:17;100847.81;;;22.98;92.86
47530;BME280;33272;51.922;7.730;2022-09-12T10:01:46;100849.00;;;23.10;92.50
47530;BME280;33272;51.922;7.730;2022-09-12T10:04:18;100845.09;;;23.29;92.43
47530;BME280;33272;51.922;7.730;2022-09-12T10:06:46;100846.47;;;23.50;91.43
47530;BME280;33272;51.922;7.730;2022-09-12T10:09:25;100844.91;;;23.58;89.83
47530;BME280;33272;51.922;7.730;2022-09-12T10:11:55;100840.94;;;23.74;89.45
47530;BME280;33272;51.922;7.730;2022-09-12T10:14:30;100846.56;;;23.92;89.40
47530;BME280;33272;51.922;7.730;2022-09-12T10:17:02;100835.50;;;24.04;88.73
47530;BME280;33272;51.922;7.730;2022-09-12T10:19:35;100839.09;;;24.09;88.16
47530;BME280;33272;51.922;7.730;2022-09-12T10:22:04;100828.84;;;24.20;88.62
47530;BME280;33272;51.922;7.730;2022-09-12T10:24:34;100828.94;;;24.24;87.58
47530;BME280;33272;51.922;7.730;2022-09-12T10:27:13;100830.63;;;24.22;85.52
47530;BME280;33272;51.922;7.730;2022-09-12T10:29:45;100823.72;;;24.26;86.47
47530;BME280;33272;51.922;7.730;2022-09-12T10:32:22;100818.50;;;24.26;85.04
47530;BME280;33272;51.922;7.730;2022-09-12T10:34:55;100816.97;;;24.37;86.35
47530;BME280;33272;51.922;7.730;2022-09-12T10:37:29;100810.84;;;24.37;84.94
47530;BME280;33272;51.922;7.730;2022-09-12T10:39:57;100814.53;;;24.45;84.56
47530;BME280;33272;51.922;7.730;2022-09-12T10:42:49;100812.50;;;24.33;76.69
47530;BME280;33272;51.922;7.730;2022-09-12T10:45:26;100811.22;;;24.11;77.95
47530;BME280;33272;51.922;7.730;2022-09-12T10:47:55;100806.78;;;24.07;83.40
47530;BME280;33272;51.922;7.730;2022-09-12T10:50:29;100804.47;;;23.80;82.39
47530;BME280;33272;51.922;7.730;2022-09-12T10:53:19;100809.84;;;23.48;76.98
47530;BME280;33272;51.922;7.730;2022-09-12T10:56:03;100803.88;;;23.54;80.80
47530;BME280;33272;51.922;7.730;2022-09-12T10:58:49;100800.44;;;23.55;76.96
47530;BME280;33272;51.922;7.730;2022-09-12T11:01:38;100802.94;;;23.50;80.38
47530;BME280;33272;51.922;7.730;2022-09-12T11:04:25;100797.19;;;23.65;78.79
47530;BME280;33272;51.922;7.730;2022-09-12T11:07:25;100793.63;;;23.63;78.01
47530;BME280;33272;51.922;7.730;2022-09-12T11:10:05;100789.50;;;23.71;81.61
47530;BME280;33272;51.922;7.730;2022-09-12T11:12:42;100793.63;;;23.63;80.06
47530;BME280;33272;51.922;7.730;2022-09-12T11:21:33;100780.81;;;23.74;80.03
47530;BME280;33272;51.922;7.730;2022-09-12T11:24:21;100772.94;;;23.71;74.96
47530;BME280;33272;51.922;7.730;2022-09-12T11:27:07;100774.72;;;23.73;80.13
47530;BME280;33272;51.922;7.730;2022-09-12T11:29:48;100765.38;;;23.85;80.16
47530;BME280;33272;51.922;7.730;2022-09-12T11:33:05;100768.91;;;23.87;77.08
47530;BME280;33272;51.922;7.730;2022-09-12T11:35:39;100762.78;;;23.86;77.21
47530;BME280;33272;51.922;7.730;2022-09-12T11:38:36;100759.47;;;23.93;77.29
47530;BME280;33272;51.922;7.730;2022-09-12T11:41:10;100765.00;;;24.10;77.63
47530;BME280;33272;51.922;7.730;2022-09-12T11:43:44;100756.28;;;24.11;77.50
47530;BME280;33272;51.922;7.730;2022-09-12T11:46:18;100759.78;;;24.12;77.61
47530;BME280;33272;51.922;7.730;2022-09-12T11:48:54;100753.53;;;24.03;72.62
47530;BME280;33272;51.922;7.730;2022-09-12T11:51:27;100745.59;;;23.97;72.20
47530;BME280;33272;51.922;7.730;2022-09-12T11:54:08;100754.41;;;24.04;76.27
47530;BME280;33272;51.922;7.730;2022-09-12T11:56:43;100751.34;;;24.26;76.09
47530;BME280;33272;51.922;7.730;2022-09-12T11:59:18;100746.53;;;24.48;74.57
47530;BME280;33272;51.922;7.730;2022-09-12T12:01:53;100744.28;;;24.69;75.20
47530;BME280;33272;51.922;7.730;2022-09-12T12:04:28;100748.03;;;24.85;74.26
47530;BME280;33272;51.922;7.730;2022-09-12T12:07:04;100743.63;;;24.81;73.74
47530;BME280;33272;51.922;7.730;2022-09-12T12:09:45;100737.72;;;24.96;74.45
47530;BME280;33272;51.922;7.730;2022-09-12T12:12:17;100742.28;;;25.08;74.31
47530;BME280;33272;51.922;7.730;2022-09-12T12:14:49;100735.28;;;25.08;73.31
47530;BME280;33272;51.922;7.730;2022-09-12T12:17:19;100738.94;;;25.16;73.35
47530;BME280;33272;51.922;7.730;2022-09-12T12:19:58;100733.50;;;25.04;67.29
47530;BME280;33272;51.922;7.730;2022-09-12T12:22:26;100726.31;;;24.91;70.39
47530;BME280;33272;51.922;7.730;2022-09-12T12:25:04;100732.34;;;24.87;71.87
47530;BME280;33272;51.922;7.730;2022-09-12T12:27:56;100732.44;;;24.91;70.52
47530;BME280;33272;51.922;7.730;2022-09-12T12:31:00;100733.66;;;25.13;68.34
47530;BME280;33272;51.922;7.730;2022-09-12T12:34:20;100732.97;;;25.28;64.51
47530;BME280;33272;51.922;7.730;2022-09-12T12:36:50;100726.31;;;25.52;71.82
47530;BME280;33272;51.922;7.730;2022-09-12T12:43:03;100724.00;;;25.76;62.26
47530;BME280;33272;51.922;7.730;2022-09-12T12:46:03;100720.63;;;25.85;60.92
47530;BME280;33272;51.922;7.730;2022-09-12T12:51:58;100706.81;;;25.98;59.40
47530;BME280;33272;51.922;7.730;2022-09-12T12:54:55;100705.97;;;26.02;61.75
47530;BME280;33272;51.922;7.730;2022-09-12T12:57:49;100703.34;;;26.02;66.04
47530;BME280;33272;51.922;7.730;2022-09-12T13:00:33;100706.81;;;25.98;58.77
47530;BME280;33272;51.922;7.730;2022-09-12T13:03:09;100690.16;;;25.96;63.95
47530;BME280;33272;51.922;7.730;2022-09-12T13:05:46;100683.81;;;25.76;62.23
47530;BME280;33272;51.922;7.730;2022-09-12T13:08:28;100679.19;;;25.55;58.24
47530;BME280;33272;51.922;7.730;2022-09-12T13:11:00;100678.56;;;25.77;62.66
47530;BME280;33272;51.922;7.730;2022-09-12T13:13:32;100675.19;;;25.86;63.89
47530;BME280;33272;51.922;7.730;2022-09-12T13:16:02;100670.97;;;26.00;62.92
47530;BME280;33272;51.922;7.730;2022-09-12T13:18:37;100680.63;;;26.06;62.63
47530;BME280;33272;51.922;7.730;2022-09-12T13:21:09;100683.28;;;26.07;62.11
47530;BME280;33272;51.922;7.730;2022-09-12T13:23:39;100672.88;;;26.17;61.84
47530;BME280;33272;51.922;7.730;2022-09-12T13:26:12;100665.19;;;26.41;61.29